Terminal Aerodrome Forecast
Issued by NWS Cleveland, OH

Home | Current Version | Previous Version | Graphics & Text | Print | Product List | Glossary On
Versions: 1 2 3 4 5 6 7 8 9 10 11 12 13 14 15 16 17 18 19 20 21 22 23 24 25 26 27
000
FTUS41 KCLE 242043 AAB
TAFMFD
TAF AMD
KMFD 242043Z 2421/2518 07008KT 6SM BR BKN007 OVC100
     FM250300 14012KT 3SM -RA BR BKN005 OVC025
     FM250800 18015G25KT 4SM -SHRA BR BKN012 OVC035
     FM251200 23020G30KT 6SM -SHRA BR SCT010 OVC025
     FM251600 25018G28KT P6SM SCT035=

USA.gov is the U.S. government's official web portal to all federal, state and local government web resources and services.